createdAt,value
2022-12-01T00:02:14.689Z,28.75
2022-12-01T00:04:42.080Z,29.23
2022-12-01T00:07:09.377Z,30.92
2022-12-01T00:09:53.960Z,31.77
2022-12-01T00:12:22.628Z,30.00
2022-12-01T00:14:59.309Z,29.30
2022-12-01T00:17:26.637Z,27.60
2022-12-01T00:19:53.928Z,29.73
2022-12-01T00:22:21.250Z,28.13
2022-12-01T00:24:48.615Z,27.55
2022-12-01T00:27:15.926Z,31.80
2022-12-01T00:29:44.543Z,28.63
2022-12-01T00:32:11.910Z,34.13
2022-12-01T00:34:39.279Z,29.48
2022-12-01T00:37:06.695Z,29.98
2022-12-01T00:39:34.107Z,32.63
2022-12-01T00:42:01.399Z,29.70
2022-12-01T00:44:28.728Z,32.72
2022-12-01T00:46:57.492Z,32.65
2022-12-01T00:49:24.787Z,34.67
2022-12-01T00:51:52.083Z,34.33
2022-12-01T00:54:19.395Z,33.83
2022-12-01T00:56:46.831Z,38.13
2022-12-01T00:59:14.177Z,34.03
2022-12-01T01:01:41.514Z,36.58
2022-12-01T01:04:10.247Z,34.30
2022-12-01T01:06:38.265Z,34.63
2022-12-01T01:09:05.579Z,37.75
2022-12-01T01:11:32.882Z,36.40
2022-12-01T01:14:00.754Z,34.97
2022-12-01T01:16:28.198Z,34.35
2022-12-01T01:18:55.544Z,34.40
2022-12-01T01:21:24.605Z,31.65
2022-12-01T01:23:52.724Z,38.70
2022-12-01T01:26:21.752Z,33.15
2022-12-01T01:28:49.514Z,42.03
2022-12-01T01:31:18.226Z,39.22
2022-12-01T01:33:45.943Z,45.25
2022-12-01T01:36:13.611Z,47.15
2022-12-01T01:38:42.585Z,42.53
2022-12-01T01:41:10.995Z,42.92
2022-12-01T01:43:43.084Z,43.33
2022-12-01T01:46:11.720Z,43.97
2022-12-01T01:48:39.803Z,42.75
2022-12-01T01:51:07.368Z,44.60
2022-12-01T01:53:34.764Z,43.38
2022-12-01T01:56:04.124Z,47.85
2022-12-01T01:58:32.530Z,46.47
2022-12-01T02:00:59.906Z,50.40
2022-12-01T02:03:28.469Z,48.33
2022-12-01T02:05:58.315Z,48.35
2022-12-01T02:08:27.904Z,46.20
2022-12-01T02:11:04.339Z,44.75
2022-12-01T02:13:34.584Z,49.03
2022-12-01T02:16:04.841Z,47.00
2022-12-01T02:18:35.329Z,49.92
2022-12-01T02:21:16.820Z,50.35
2022-12-01T02:24:03.570Z,51.58
2022-12-01T02:26:36.776Z,46.70
2022-12-01T02:29:22.840Z,52.83
2022-12-01T02:31:54.262Z,48.65
2022-12-01T02:34:26.784Z,53.95
2022-12-01T02:36:55.991Z,49.33
2022-12-01T02:39:29.110Z,47.67
2022-12-01T02:41:59.394Z,47.33
2022-12-01T02:44:30.806Z,49.08
2022-12-01T02:47:01.420Z,50.53
2022-12-01T02:49:31.421Z,47.90
2022-12-01T02:51:59.349Z,54.15
2022-12-01T02:54:28.545Z,54.78
2022-12-01T02:56:55.936Z,52.95
2022-12-01T02:59:23.287Z,61.10
2022-12-01T03:01:55.825Z,65.68
2022-12-01T03:04:34.019Z,64.13
2022-12-01T03:07:08.083Z,63.22
2022-12-01T03:09:42.015Z,61.63
2022-12-01T03:12:15.044Z,66.47
2022-12-01T03:14:46.544Z,54.70
2022-12-01T03:17:17.360Z,64.28
2022-12-01T03:19:48.029Z,64.50
2022-12-01T03:22:18.054Z,70.55
2022-12-01T03:24:46.451Z,59.40
2022-12-01T03:27:14.640Z,58.42
2022-12-01T03:29:44.453Z,56.90
2022-12-01T03:32:14.121Z,57.63
2022-12-01T03:34:44.409Z,57.63
2022-12-01T03:37:17.911Z,59.17
2022-12-01T03:39:47.010Z,63.92
2022-12-01T03:42:16.661Z,55.75
2022-12-01T03:44:46.330Z,60.50
2022-12-01T03:47:15.528Z,61.97
2022-12-01T03:49:43.663Z,61.58
2022-12-01T03:52:16.547Z,63.65
2022-12-01T03:54:50.104Z,66.32
2022-12-01T03:57:19.812Z,67.00
2022-12-01T03:59:48.912Z,69.07
2022-12-01T04:02:16.876Z,64.32
2022-12-01T04:04:44.234Z,67.53
2022-12-01T04:07:14.708Z,85.28
2022-12-01T04:09:42.210Z,81.30
2022-12-01T04:12:30.833Z,83.95
2022-12-01T04:14:58.480Z,79.53
2022-12-01T04:17:26.057Z,96.53
2022-12-01T04:19:53.421Z,99.82
2022-12-01T04:22:22.380Z,84.28
2022-12-01T04:24:49.718Z,88.20
2022-12-01T04:27:17.051Z,100.00
2022-12-01T04:29:44.368Z,98.70
2022-12-01T04:32:11.760Z,114.88
2022-12-01T04:34:39.096Z,103.35
2022-12-01T04:37:07.235Z,92.50
2022-12-01T04:39:35.904Z,106.20
2022-12-01T04:42:03.485Z,99.82
2022-12-01T04:44:34.783Z,100.35
2022-12-01T04:47:02.838Z,110.13
2022-12-01T04:49:30.175Z,100.22
2022-12-01T04:51:57.573Z,101.38
2022-12-01T04:54:25.206Z,98.15
2022-12-01T04:56:53.871Z,94.85
2022-12-01T04:59:21.211Z,101.97
2022-12-01T05:01:48.885Z,89.85
2022-12-01T05:04:16.470Z,98.70
2022-12-01T05:06:43.972Z,97.47
2022-12-01T05:09:16.890Z,97.97
2022-12-01T05:11:44.951Z,102.68
2022-12-01T05:14:13.683Z,112.20
2022-12-01T05:16:41.084Z,101.07
2022-12-01T05:19:26.010Z,110.28
2022-12-01T05:21:53.952Z,113.88
2022-12-01T05:24:21.818Z,104.22
2022-12-01T05:26:49.223Z,104.38
2022-12-01T05:29:17.870Z,101.20
2022-12-01T05:31:46.254Z,99.95
2022-12-01T05:34:13.619Z,103.25
2022-12-01T05:36:41.834Z,95.15
2022-12-01T05:39:09.152Z,109.32
2022-12-01T05:41:36.475Z,104.25
2022-12-01T05:44:03.818Z,92.43
2022-12-01T05:46:32.555Z,100.35
2022-12-01T05:48:59.940Z,103.50
2022-12-01T05:51:27.276Z,98.53
2022-12-01T05:53:54.996Z,102.65
2022-12-01T05:56:22.339Z,96.07
2022-12-01T05:58:49.665Z,95.97
2022-12-01T06:01:16.946Z,97.78
2022-12-01T06:03:45.624Z,87.53
2022-12-01T06:06:12.943Z,91.00
2022-12-01T06:08:40.240Z,93.78
2022-12-01T06:11:07.551Z,94.47
2022-12-01T06:13:34.883Z,92.57
2022-12-01T06:16:03.404Z,91.95
2022-12-01T06:18:31.852Z,91.72
2022-12-01T06:21:00.523Z,97.38
2022-12-01T06:23:30.536Z,89.25
2022-12-01T06:25:58.326Z,88.03
2022-12-01T06:28:25.678Z,89.95
2022-12-01T06:30:55.511Z,77.20
2022-12-01T06:33:26.770Z,74.40
2022-12-01T06:35:57.955Z,80.15
2022-12-01T06:38:26.619Z,81.78
2022-12-01T06:40:53.894Z,80.35
2022-12-01T06:43:21.229Z,74.97
2022-12-01T06:45:48.556Z,79.18
2022-12-01T06:48:15.945Z,69.53
2022-12-01T06:50:43.238Z,69.03
2022-12-01T06:53:11.267Z,72.53
2022-12-01T06:55:39.994Z,69.07
2022-12-01T06:58:07.425Z,71.53
2022-12-01T07:00:34.738Z,63.30
2022-12-01T07:03:02.020Z,68.03
2022-12-01T07:05:29.342Z,66.70
2022-12-01T07:07:59.629Z,62.58
2022-12-01T07:10:27.648Z,63.10
2022-12-01T07:12:57.928Z,59.42
2022-12-01T07:15:25.281Z,59.25
2022-12-01T07:17:52.618Z,62.85
2022-12-01T07:20:19.985Z,61.42
2022-12-01T07:22:47.454Z,58.92
2022-12-01T07:25:14.928Z,58.47
2022-12-01T07:27:42.417Z,52.83
2022-12-01T07:30:11.638Z,50.17
2022-12-01T07:32:38.952Z,52.72
2022-12-01T07:35:06.921Z,55.17
2022-12-01T07:37:34.216Z,55.42
2022-12-01T07:40:01.511Z,55.33
2022-12-01T07:42:28.825Z,55.63
2022-12-01T07:44:56.140Z,53.58
2022-12-01T07:47:24.795Z,54.00
2022-12-01T07:49:52.240Z,56.35
2022-12-01T07:52:19.736Z,61.03
2022-12-01T07:54:47.032Z,54.63
2022-12-01T07:57:14.798Z,59.45
2022-12-01T07:59:42.157Z,53.97
2022-12-01T08:02:09.595Z,57.88
2022-12-01T08:04:38.340Z,58.97
2022-12-01T08:07:05.633Z,57.70
2022-12-01T08:09:32.915Z,56.08
2022-12-01T08:12:00.224Z,49.40
2022-12-01T08:14:27.491Z,51.78
2022-12-01T08:16:54.820Z,52.28
2022-12-01T08:19:22.147Z,52.88
2022-12-01T08:21:50.806Z,50.83
2022-12-01T08:24:18.496Z,50.92
2022-12-01T08:26:45.811Z,52.75
2022-12-01T08:29:18.553Z,54.70
2022-12-01T08:31:47.364Z,52.97
2022-12-01T08:34:15.096Z,45.45
2022-12-01T08:36:42.413Z,50.83
2022-12-01T08:39:11.681Z,54.15
2022-12-01T08:41:39.079Z,50.50
2022-12-01T08:44:06.364Z,52.47
2022-12-01T08:46:34.617Z,52.42
2022-12-01T08:49:02.330Z,51.08
2022-12-01T08:51:29.997Z,52.00
2022-12-01T08:53:58.093Z,50.47
2022-12-01T08:56:27.733Z,46.65
2022-12-01T08:58:55.432Z,43.03
2022-12-01T09:01:22.917Z,48.83
2022-12-01T09:04:04.840Z,49.42
2022-12-01T09:06:32.723Z,47.10
2022-12-01T09:09:00.044Z,45.10
2022-12-01T09:11:28.663Z,47.83
2022-12-01T09:13:55.946Z,47.05
2022-12-01T09:16:23.288Z,53.25
2022-12-01T09:18:50.637Z,50.15
2022-12-01T09:21:18.801Z,46.70
2022-12-01T09:23:46.329Z,48.92
2022-12-01T09:26:18.015Z,46.53
2022-12-01T09:28:46.764Z,46.85
2022-12-01T09:31:14.505Z,50.40
2022-12-01T09:33:42.087Z,56.00
2022-12-01T09:36:09.741Z,53.15
2022-12-01T09:38:37.728Z,42.83
2022-12-01T09:41:06.841Z,45.40
2022-12-01T09:43:40.072Z,41.20
2022-12-01T09:46:12.404Z,41.92
2022-12-01T09:48:43.422Z,45.63
2022-12-01T09:51:13.337Z,45.78
2022-12-01T09:53:40.692Z,45.38
2022-12-01T09:56:13.536Z,43.88
2022-12-01T09:58:41.140Z,42.53
2022-12-01T10:01:12.222Z,41.42
2022-12-01T10:03:45.454Z,38.78
2022-12-01T10:06:27.092Z,36.97
2022-12-01T10:09:01.291Z,39.50
2022-12-01T10:11:31.079Z,36.92
2022-12-01T10:13:59.414Z,37.15
2022-12-01T10:16:31.327Z,38.53
2022-12-01T10:19:02.034Z,44.38
2022-12-01T10:21:38.914Z,38.92
2022-12-01T10:24:12.218Z,38.05
2022-12-01T10:26:43.982Z,35.65
2022-12-01T10:29:17.197Z,36.60
2022-12-01T10:31:52.659Z,36.53
2022-12-01T10:34:22.212Z,34.50
2022-12-01T10:36:49.768Z,40.78
2022-12-01T10:39:18.338Z,36.63
2022-12-01T10:41:46.079Z,36.65
2022-12-01T10:44:13.400Z,33.80
2022-12-01T10:46:42.915Z,35.10
2022-12-01T10:49:12.549Z,35.95
2022-12-01T10:51:50.466Z,37.90
2022-12-01T10:54:17.967Z,38.63
2022-12-01T10:56:47.600Z,31.10
2022-12-01T10:59:26.806Z,35.13
2022-12-01T11:01:54.803Z,35.33
2022-12-01T11:04:28.031Z,38.08
2022-12-01T11:06:55.652Z,33.45
2022-12-01T11:09:26.529Z,35.75
2022-12-01T11:11:56.644Z,32.22
2022-12-01T11:14:24.860Z,29.38
2022-12-01T11:16:53.831Z,24.55
2022-12-01T11:19:27.140Z,27.15
2022-12-01T11:21:57.467Z,25.83
2022-12-01T11:24:29.726Z,29.83
2022-12-01T11:26:58.548Z,26.00
2022-12-01T11:29:31.708Z,29.98
2022-12-01T11:32:00.833Z,36.15
2022-12-01T11:34:29.466Z,32.28
2022-12-01T11:36:59.121Z,36.65
2022-12-01T11:39:28.188Z,35.38
2022-12-01T11:41:56.513Z,29.08
2022-12-01T11:47:23.184Z,27.90
2022-12-01T11:49:53.509Z,26.48
2022-12-01T11:52:27.278Z,28.80
2022-12-01T11:55:05.758Z,25.48
2022-12-01T11:57:37.046Z,27.25
2022-12-01T12:00:12.901Z,28.38
2022-12-01T12:02:44.785Z,27.52
2022-12-01T12:05:20.937Z,28.45
2022-12-01T12:07:54.970Z,24.80
2022-12-01T12:10:30.928Z,28.10
2022-12-01T12:13:06.943Z,28.35
2022-12-01T12:15:39.562Z,27.65
2022-12-01T12:18:21.836Z,27.13
2022-12-01T12:20:53.923Z,24.55
2022-12-01T12:23:32.627Z,29.30
2022-12-01T12:26:04.895Z,31.20
2022-12-01T12:28:40.237Z,29.88
2022-12-01T12:31:12.318Z,33.33
2022-12-01T12:33:48.576Z,29.42
2022-12-01T12:36:21.728Z,32.55
2022-12-01T12:38:59.848Z,31.98
2022-12-01T12:41:31.444Z,34.20
2022-12-01T12:44:04.228Z,34.78
2022-12-01T12:46:35.471Z,32.80
2022-12-01T12:49:20.911Z,34.45
2022-12-01T12:51:49.999Z,31.83
2022-12-01T12:54:22.704Z,33.05
2022-12-01T12:56:51.239Z,32.20
2022-12-01T12:59:21.221Z,36.38
2022-12-01T13:01:51.365Z,37.72
2022-12-01T13:04:21.301Z,36.55
2022-12-01T13:06:51.432Z,33.03
2022-12-01T13:09:22.673Z,36.72
2022-12-01T13:11:52.624Z,35.58
2022-12-01T13:14:24.107Z,35.70
2022-12-01T13:16:52.813Z,38.35
2022-12-01T13:19:23.458Z,37.42
2022-12-01T13:21:51.936Z,37.33
2022-12-01T13:24:23.585Z,35.75
2022-12-01T13:26:52.599Z,40.30
2022-12-01T13:29:22.652Z,39.30
2022-12-01T13:31:51.509Z,39.28
2022-12-01T13:34:21.305Z,38.45
2022-12-01T13:36:49.756Z,41.50
2022-12-01T13:39:19.283Z,44.10
2022-12-01T13:41:57.077Z,44.03
2022-12-01T13:44:25.416Z,48.33
2022-12-01T13:46:53.955Z,54.17
2022-12-01T13:49:36.719Z,42.90
2022-12-01T13:52:18.899Z,47.92
2022-12-01T13:55:00.441Z,44.92
2022-12-01T13:57:30.723Z,48.15
2022-12-01T14:00:07.581Z,51.40
2022-12-01T14:02:35.947Z,46.00
2022-12-01T14:05:22.219Z,48.23
2022-12-01T14:07:50.145Z,47.35
2022-12-01T14:10:28.437Z,48.67
2022-12-01T14:12:59.238Z,54.33
2022-12-01T14:15:44.961Z,53.63
2022-12-01T14:18:28.099Z,57.97
2022-12-01T14:20:55.543Z,63.75
2022-12-01T14:23:28.819Z,60.58
2022-12-01T14:26:02.427Z,54.15
2022-12-01T14:28:48.444Z,54.83
2022-12-01T14:31:17.129Z,52.80
2022-12-01T14:33:46.741Z,55.88
2022-12-01T14:36:19.393Z,61.78
2022-12-01T14:38:47.620Z,54.20
2022-12-01T14:41:22.572Z,54.83
2022-12-01T14:44:11.094Z,57.80
2022-12-01T14:46:41.995Z,57.67
2022-12-01T14:49:13.897Z,56.72
2022-12-01T14:51:44.460Z,58.08
2022-12-01T14:54:17.433Z,54.28
2022-12-01T14:56:46.401Z,61.75
2022-12-01T14:59:16.004Z,52.13
2022-12-01T15:01:44.740Z,54.65
2022-12-01T15:04:12.095Z,50.58
2022-12-01T15:06:39.459Z,46.83
2022-12-01T15:11:58.088Z,55.03
2022-12-01T15:14:29.729Z,47.80
2022-12-01T15:16:58.823Z,51.70
2022-12-01T15:19:30.706Z,49.65
2022-12-01T15:21:58.421Z,48.47
2022-12-01T15:24:26.671Z,45.03
2022-12-01T15:26:59.104Z,54.63
2022-12-01T15:29:30.472Z,57.50
2022-12-01T15:32:00.511Z,56.72
2022-12-01T15:34:30.336Z,57.88
2022-12-01T15:36:58.168Z,59.58
2022-12-01T15:39:29.768Z,64.15
2022-12-01T15:41:57.225Z,62.13
2022-12-01T15:44:27.891Z,60.13
2022-12-01T15:46:55.237Z,64.07
2022-12-01T15:49:29.249Z,62.83
2022-12-01T15:52:04.093Z,66.50
2022-12-01T15:54:31.604Z,66.43
2022-12-01T15:56:59.876Z,53.92
2022-12-01T15:59:29.558Z,52.20
2022-12-01T16:01:57.053Z,51.75
2022-12-01T16:04:26.762Z,51.70
2022-12-01T16:06:56.454Z,49.05
2022-12-01T16:09:26.190Z,47.08
2022-12-01T16:12:20.880Z,47.90
2022-12-01T16:14:53.375Z,47.70
2022-12-01T16:17:20.849Z,47.40
2022-12-01T16:19:49.707Z,40.35
2022-12-01T16:22:19.030Z,49.58
2022-12-01T16:24:47.707Z,50.38
2022-12-01T16:27:18.980Z,47.67
2022-12-01T16:29:48.853Z,49.33
2022-12-01T16:32:21.028Z,47.45
2022-12-01T16:34:50.849Z,46.00
2022-12-01T16:37:18.202Z,49.50
2022-12-01T16:39:45.527Z,46.15
2022-12-01T16:42:14.051Z,46.95
2022-12-01T16:44:41.577Z,47.95
2022-12-01T16:47:16.149Z,48.05
2022-12-01T16:49:43.456Z,48.00
2022-12-01T16:54:59.695Z,45.47
2022-12-01T16:57:27.133Z,42.72
2022-12-01T16:59:54.414Z,44.53
2022-12-01T17:02:21.730Z,44.30
2022-12-01T17:04:49.497Z,48.13
2022-12-01T17:07:18.436Z,45.78
2022-12-01T17:09:45.746Z,47.08
2022-12-01T17:12:13.094Z,45.58
2022-12-01T17:14:40.376Z,45.10
2022-12-01T17:17:07.632Z,50.65
2022-12-01T17:19:35.167Z,57.50
2022-12-01T17:22:02.459Z,59.95
2022-12-01T17:24:31.087Z,66.05
2022-12-01T17:26:58.434Z,70.28
2022-12-01T17:29:26.227Z,71.78
2022-12-01T17:31:53.493Z,72.22
2022-12-01T17:34:20.888Z,74.43
2022-12-01T17:36:48.181Z,75.25
2022-12-01T17:39:15.575Z,71.97
2022-12-01T17:41:44.240Z,71.60
2022-12-01T17:44:11.560Z,68.43
2022-12-01T17:46:41.410Z,66.05
2022-12-01T17:49:09.425Z,68.38
2022-12-01T17:51:36.759Z,63.28
2022-12-01T17:54:04.180Z,62.50
2022-12-01T17:56:31.555Z,66.05
2022-12-01T17:59:00.190Z,64.88
2022-12-01T18:01:30.475Z,75.82
2022-12-01T18:03:58.384Z,75.47
2022-12-01T18:06:26.809Z,80.03
2022-12-01T18:08:54.825Z,71.25
2022-12-01T18:11:22.739Z,84.65
2022-12-01T18:13:50.876Z,79.03
2022-12-01T18:16:20.456Z,75.53
2022-12-01T18:18:48.026Z,79.85
2022-12-01T18:21:16.643Z,74.47
2022-12-01T18:23:48.832Z,76.25
2022-12-01T18:26:16.533Z,76.03
2022-12-01T18:28:44.084Z,75.88
2022-12-01T18:31:12.595Z,69.40
2022-12-01T18:33:42.261Z,73.25
2022-12-01T18:36:10.631Z,71.28
2022-12-01T18:38:38.023Z,78.45
2022-12-01T18:41:05.460Z,76.53
2022-12-01T18:43:33.597Z,74.15
2022-12-01T18:46:01.197Z,71.65
2022-12-01T18:48:28.751Z,69.40
2022-12-01T18:50:59.650Z,71.50
2022-12-01T18:53:27.092Z,73.95
2022-12-01T18:55:54.363Z,78.25
2022-12-01T18:58:21.675Z,71.30
2022-12-01T19:00:49.040Z,76.93
2022-12-01T19:03:16.471Z,73.93
2022-12-01T19:05:43.803Z,71.88
2022-12-01T19:08:13.077Z,77.68
2022-12-01T19:10:40.495Z,75.35
2022-12-01T19:13:07.928Z,77.82
2022-12-01T19:15:36.937Z,85.60
2022-12-01T19:18:04.395Z,72.45
2022-12-01T19:20:31.677Z,81.78
2022-12-01T19:22:59.143Z,77.47
2022-12-01T19:25:27.824Z,76.05
2022-12-01T19:27:55.150Z,73.72
2022-12-01T19:30:22.528Z,73.57
2022-12-01T19:32:49.888Z,75.00
2022-12-01T19:35:17.202Z,78.68
2022-12-01T19:37:44.761Z,80.35
2022-12-01T19:40:12.703Z,78.88
2022-12-01T19:42:41.748Z,78.03
2022-12-01T19:45:09.729Z,74.38
2022-12-01T19:47:37.516Z,68.10
2022-12-01T19:50:05.155Z,62.60
2022-12-01T19:52:33.869Z,63.60
2022-12-01T19:55:01.296Z,62.38
2022-12-01T19:57:28.642Z,60.28
2022-12-01T19:59:57.318Z,63.67
2022-12-01T20:02:29.039Z,63.33
2022-12-01T20:04:57.078Z,62.25
2022-12-01T20:07:24.458Z,58.80
2022-12-01T20:09:51.779Z,63.03
2022-12-01T20:12:19.329Z,63.25
2022-12-01T20:14:46.993Z,66.03
2022-12-01T20:17:16.109Z,61.05
2022-12-01T20:19:43.607Z,62.35
2022-12-01T20:22:10.918Z,65.95
2022-12-01T20:24:39.441Z,65.75
2022-12-01T20:27:06.732Z,53.80
2022-12-01T20:29:34.068Z,51.53
2022-12-01T20:32:02.927Z,53.22
2022-12-01T20:34:33.465Z,51.40
2022-12-01T20:37:00.997Z,48.33
2022-12-01T20:39:31.361Z,50.05
2022-12-01T20:41:58.775Z,51.45
2022-12-01T20:44:26.091Z,49.20
2022-12-01T20:46:53.726Z,48.55
2022-12-01T20:49:21.515Z,51.13
2022-12-01T20:51:50.438Z,45.83
2022-12-01T20:54:33.796Z,46.58
2022-12-01T20:57:01.273Z,46.03
2022-12-01T20:59:29.139Z,48.42
2022-12-01T21:01:56.710Z,51.50
2022-12-01T21:04:24.226Z,45.13
2022-12-01T21:06:55.723Z,42.75
2022-12-01T21:09:23.084Z,60.05
2022-12-01T21:12:20.362Z,47.38
2022-12-01T21:14:50.416Z,52.60
2022-12-01T21:17:22.320Z,49.90
2022-12-01T21:19:52.815Z,50.95
2022-12-01T21:22:21.462Z,50.08
2022-12-01T21:24:50.971Z,49.38
2022-12-01T21:27:18.943Z,48.83
2022-12-01T21:29:47.151Z,46.65
2022-12-01T21:32:15.411Z,51.83
2022-12-01T21:34:42.785Z,49.92
2022-12-01T21:37:15.486Z,50.72
2022-12-01T21:39:44.165Z,47.05
2022-12-01T21:42:16.727Z,41.28
2022-12-01T21:44:44.122Z,49.03
2022-12-01T21:47:16.157Z,50.22
2022-12-01T21:49:44.439Z,47.30
2022-12-01T21:52:14.526Z,47.97
2022-12-01T21:54:41.840Z,46.17
2022-12-01T21:57:24.689Z,47.15
2022-12-01T21:59:52.357Z,87.45
2022-12-01T22:02:31.204Z,58.92
2022-12-01T22:04:59.655Z,50.45
2022-12-01T22:07:27.806Z,48.55
2022-12-01T22:09:55.214Z,51.05
2022-12-01T22:12:26.871Z,62.55
2022-12-01T22:14:54.368Z,68.13
2022-12-01T22:17:22.397Z,55.45
2022-12-01T22:19:54.639Z,58.75
2022-12-01T22:22:23.558Z,52.17
2022-12-01T22:24:52.131Z,56.22
2022-12-01T22:27:28.058Z,50.05
2022-12-01T22:29:57.938Z,47.05
2022-12-01T22:32:35.937Z,47.90
2022-12-01T22:35:24.199Z,55.03
2022-12-01T22:37:52.455Z,50.80
2022-12-01T22:40:32.506Z,60.25
2022-12-01T22:43:02.750Z,45.38
2022-12-01T22:45:30.041Z,47.80
2022-12-01T22:48:01.240Z,46.63
2022-12-01T22:50:30.057Z,48.20
2022-12-01T22:53:00.065Z,54.97
2022-12-01T22:55:27.405Z,49.55
2022-12-01T22:57:54.917Z,49.25
2022-12-01T23:00:24.242Z,62.58
2022-12-01T23:02:53.109Z,53.00
2022-12-01T23:05:23.436Z,50.80
2022-12-01T23:07:51.039Z,50.50
2022-12-01T23:10:19.157Z,58.67
2022-12-01T23:12:47.139Z,56.00
2022-12-01T23:15:21.460Z,52.70
2022-12-01T23:17:50.492Z,57.55
2022-12-01T23:20:28.393Z,60.50
2022-12-01T23:22:56.394Z,60.45
2022-12-01T23:25:24.830Z,61.60
2022-12-01T23:27:53.215Z,71.53
2022-12-01T23:30:21.580Z,60.95
2022-12-01T23:33:03.168Z,46.22
2022-12-01T23:35:30.711Z,56.25
2022-12-01T23:37:58.051Z,49.13
2022-12-01T23:40:28.653Z,50.53
2022-12-01T23:42:58.741Z,47.78
2022-12-01T23:45:28.164Z,52.40
2022-12-01T23:47:57.364Z,52.88
2022-12-01T23:50:26.484Z,60.83
2022-12-01T23:52:54.622Z,52.22
2022-12-01T23:55:22.988Z,48.88
2022-12-01T23:57:50.751Z,55.13
